Weather observations for the past three days for
Frankfort, Frankfort Dow Memorial Field Airport
Imperial (Metric)
Date Time (edt) Wind (mph) Vis. (mi.) Weather Sky Cond. Temperature (ºF) Relative Humidity Wind Chill (°F) Heat Index (°F) Pressure Precipitation (in)
Air Dwpt 6 hour altimeter (in) sea level (mb) 1 hr 3 hr 6 hr
Max. Min.
09 09:35 SW 8 10.00 Overcast OVC100 46.4 39.2 76% 43 29.53 0.0
09 09:15 Vrbl 6 10.00 Overcast OVC110 48.2 41 76% 46 29.51 0.0
09 08:55 Vrbl 7 G 16 10.00 Overcast OVC110 50 41 71% 48 29.5 0.0
09 08:35 W 10 G 20 10.00 Partly Cloudy SCT110 51.8 41 67% 29.49 0.0
09 08:15 SW 12 G 16 10.00 Fair CLR 53.6 42.8 67% 29.48 0.0
09 07:55 S 7 10.00 A Few Clouds FEW100 53.6 44.6 58.1 52.5 72% 29.48 0.0
09 07:35 Vrbl 7 G 17 10.00 Mostly Cloudy BKN100 53.6 44.6 72% 29.48 0.0
09 07:15 Vrbl 7 10.00 Partly Cloudy SCT100 53.6 42.8 67% 29.48 0.0
09 06:55 S 7 G 16 10.00 Fair CLR 53.6 42.8 67% 29.48 0.0
09 06:35 S 6 10.00 Fair CLR 53.6 41 63% 29.49 0.0
09 06:15 S 7 10.00 Fair CLR 53.6 41 63% 29.5 0.0
09 05:55 S 8 10.00 A Few Clouds FEW120 53.6 39.2 58% 29.5 0.0
09 05:35 S 7 10.00 Partly Cloudy SCT110 55.4 39.2 55% 29.5 0.0
09 05:15 S 7 10.00 Mostly Cloudy BKN100 BKN120 55.4 39.2 55% 29.5 0.0
09 04:55 S 13 10.00 Overcast OVC090 57.2 39.2 51% 29.51 0.0
09 04:35 S 17 10.00 Overcast BKN100 OVC120 57.2 41 55% 29.51 0.0
09 04:15 S 12 10.00 Mostly Cloudy BKN120 57.2 39.2 51% 29.51 0.0
09 03:55 S 14 G 26 10.00 Fair CLR 57.2 39.2 51% 29.52 0.0
09 03:35 S 16 G 23 10.00 Fair CLR 57.2 39.2 51% 29.53 0.0
09 03:15 S 16 G 23 10.00 Fair CLR 57.2 37.4 48% 29.55 0.0
09 02:55 Vrbl 6 10.00 Fair CLR 55.4 28.4 36% 29.56 0.0
09 02:35 SE 8 10.00 A Few Clouds FEW110 55.4 24.8 31% 29.57 0.0
09 02:15 S 8 10.00 Overcast BKN100 OVC120 55.4 24.8 31% 29.58 0.0
09 01:55 S 8 10.00 Overcast OVC100 55.4 24.8 56.8 52.7 31% 29.59 0.0
09 01:35 S 10 10.00 Overcast OVC090 55.4 24.8 31% 29.6 0.0
09 01:15 S 7 10.00 Overcast OVC090 55.4 24.8 31% 29.61 0.0
09 00:55 S 9 10.00 Overcast OVC100 55.4 24.8 31% 29.61 0.0
09 00:35 SE 7 10.00 Mostly Cloudy BKN110 55.4 24.8 31% 29.62 0.0
09 00:15 S 8 10.00 Mostly Cloudy FEW080 BKN110 55.4 23 28% 29.63 0.0
08 23:55 S 7 10.00 Overcast OVC100 55.4 24.8 31% 29.64 0.0
08 23:35 S 5 10.00 Overcast FEW080 OVC100 57.2 24.8 29% 29.65 0.0
08 23:15 Vrbl 7 10.00 Mostly Cloudy SCT090 BKN110 55.4 24.8 31% 29.65 0.0
08 22:55 S 8 10.00 Mostly Cloudy BKN100 55.4 24.8 31% 29.65 0.0
08 22:35 S 8 10.00 Overcast OVC100 55.4 24.8 31% 29.65 0.0
08 22:15 S 6 10.00 Overcast OVC110 55.4 26.6 33% 29.65 0.0
08 21:55 SE 5 10.00 Overcast OVC110 53.6 26.6 35% 29.65 0.0
08 21:35 S 3 10.00 Mostly Cloudy BKN100 53.6 26.6 35% 29.65 0.0
08 21:15 S 5 10.00 Mostly Cloudy BKN100 53.6 26.6 35% 29.65 0.0
08 20:55 Vrbl 3 10.00 Overcast OVC100 55.4 26.6 33% 29.66 0.0
08 20:35 Vrbl 5 10.00 Partly Cloudy SCT090 SCT110 53.6 28.4 38% 29.66 0.0
08 20:15 S 7 10.00 Partly Cloudy SCT090 SCT120 53.6 28.4 38% 29.66 0.0
08 19:55 SW 9 10.00 Partly Cloudy SCT100 SCT120 53.6 28.4 56.8 51.4 38% 29.67 0.0
08 19:35 S 12 10.00 Mostly Cloudy SCT090 BKN120 53.6 28.4 38% 29.67 0.0
08 19:15 SW 9 G 20 10.00 Mostly Cloudy BKN090 53.6 28.4 38% 29.68 0.0
08 18:55 SW 12 G 20 10.00 Mostly Cloudy BKN090 53.6 28.4 38% 29.68 0.0
08 18:35 SW 10 G 18 10.00 Overcast OVC090 53.6 30.2 41% 29.68 0.0
08 18:15 SW 12 G 22 10.00 Overcast OVC100 53.6 28.4 38% 29.68 0.0
08 17:55 SW 10 G 23 10.00 Overcast OVC100 55.4 26.6 33% 29.69 0.0
08 17:35 SW 14 G 20 10.00 Mostly Cloudy BKN110 53.6 28.4 38% 29.69 0.0
08 17:15 SW 16 G 25 10.00 Partly Cloudy SCT100 55.4 28.4 36% 29.69 0.0
08 16:55 SW 12 G 24 10.00 Fair CLR 55.4 26.6 33% 29.7 0.0
08 16:35 S 17 G 23 10.00 Fair CLR 55.4 26.6 33% 29.71 0.0
08 16:15 SW 14 G 26 10.00 Fair CLR 55.4 24.8 31% 29.71 0.0
08 15:55 S 14 G 26 10.00 Fair CLR 57.2 24.8 29% 29.72 0.0
08 15:35 S 14 G 23 10.00 Fair CLR 55.4 28.4 36% 29.73 0.0
08 15:15 S 13 G 22 10.00 Fair CLR 55.4 30.2 38% 29.74 0.0
08 14:55 SW 14 G 25 10.00 Fair CLR 55.4 30.2 38% 29.74 0.0
08 14:35 S 15 G 26 10.00 Fair CLR 53.6 33.8 47% 29.75 0.0
08 14:15 SW 10 G 23 10.00 Fair CLR 53.6 35.6 51% 29.76 0.0
08 13:55 SW 10 G 22 10.00 Fair CLR 51.8 35.6 52.3 44.1 54% 29.77 0.0
08 13:35 SW 9 G 18 10.00 Fair CLR 51.8 37.4 58% 29.78 0.0
08 13:15 SW 13 G 22 10.00 Fair CLR 50 37.4 62% 46 29.78 0.0
08 12:55 Vrbl 7 10.00 Fair CLR 51.8 37.4 58% 29.79 0.0
08 12:35 SW 12 G 17 10.00 Fair CLR 50 37.4 62% 46 29.8 0.0
08 12:15 SW 12 G 20 10.00 Fair CLR 50 37.4 62% 46 29.8 0.0
08 11:55 SW 12 G 21 10.00 Fair CLR 50 37.4 62% 46 29.81 0.0
08 11:35 SW 8 G 20 10.00 Fair CLR 48.2 35.6 62% 45 29.81 0.0
08 11:15 SW 12 10.00 Fair CLR 48.2 35.6 62% 44 29.81 0.0
08 10:55 SW 13 G 17 10.00 Fair CLR 46.4 35.6 66% 41 29.82 0.0
08 10:35 W 10 G 17 10.00 Fair CLR 46.4 35.6 66% 42 29.82 0.0
08 10:15 Vrbl 6 G 20 10.00 Fair CLR 48.2 35.6 62% 46 29.82 0.0
08 09:55 Vrbl 7 G 17 10.00 Fair CLR 48.2 33.8 58% 46 29.82 0.0
08 09:35 SW 12 G 21 10.00 Fair CLR 46.4 33.8 62% 42 29.82 0.0
08 09:15 SW 10 G 18 10.00 Fair CLR 46.4 33.8 62% 42 29.81 0.0
08 08:55 Vrbl 7 10.00 A Few Clouds FEW085 46.4 33.8 62% 43 29.82 0.0
08 08:35 Vrbl 6 10.00 Fair CLR 46.4 33.8 62% 44 29.81 0.0
08 08:15 Vrbl 7 10.00 Fair CLR 44.6 33.8 66% 41 29.81 0.0
08 07:55 Vrbl 7 10.00 Fair CLR 44.6 33.8 44.2 33.3 66% 41 29.81 0.0
08 07:35 SW 7 10.00 A Few Clouds FEW095 42.8 33.8 71% 39 29.81 0.0
08 07:15 Vrbl 3 10.00 Partly Cloudy SCT095 42.8 32 66% 29.81 0.0
08 06:55 Vrbl 2 10.00 Fair CLR 41 32 70% 29.81 0.0
08 06:35 SW 5 10.00 Fair CLR 41 33.8 76% 38 29.8 0.0
08 06:15 Vrbl 5 10.00 Fair CLR 41 32 70% 38 29.81 0.0
08 05:55 S 5 10.00 Fair CLR 42.8 33.8 71% 41 29.81 0.0
08 05:35 SW 6 10.00 Partly Cloudy SCT100 42.8 33.8 71% 40 29.81 0.0
08 05:15 S 5 10.00 Overcast OVC100 41 35.6 81% 38 29.81 0.0
08 04:55 Vrbl 6 10.00 Mostly Cloudy BKN100 41 35.6 81% 38 29.82 0.0
08 04:35 Vrbl 5 10.00 A Few Clouds FEW100 41 35.6 81% 38 29.83 0.0
08 04:15 W 5 10.00 Mostly Cloudy BKN100 41 35.6 81% 38 29.83 0.0
08 03:55 Vrbl 2 10.00 Partly Cloudy SCT100 39.2 33.8 81% 29.83 0.0
08 03:35 Vrbl 3 10.00 Partly Cloudy SCT100 39.2 32 75% 29.83 0.0
08 03:15 Vrbl 2 10.00 Partly Cloudy SCT100 39.2 32 75% 29.84 0.0
08 02:55 Vrbl 1 10.00 A Few Clouds FEW100 39.2 33.8 81% 29.84 0.0
08 02:35 Calm 10.00 Fair CLR 35.6 32 87% 29.85 0.0
08 02:15 Vrbl 1 10.00 Fair CLR 37.4 32 81% 29.85 0.0
08 01:55 Calm 10.00 Fair CLR 39.2 32 44.1 32.2 75% 29.86 0.0
08 01:35 Vrbl 2 10.00 Fair CLR 39.2 33.8 81% 29.86 0.0
08 01:15 Calm 10.00 Fair CLR 35.6 32 87% 29.86 0.0
08 00:55 E 1 10.00 Fair CLR 35.6 32 87% 29.86 0.0
08 00:35 Calm 10.00 Fair CLR 35.6 32 87% 29.86 0.0
08 00:15 NE 1 10.00 Fair CLR 33.8 30.2 87% 29.86 0.0
07 23:55 Vrbl 1 10.00 Fair CLR 33.8 30.2 87% 29.86 0.0
07 23:35 Calm 10.00 Fair CLR 37.4 32 81% 29.86 0.0
07 23:15 Vrbl 1 10.00 Fair CLR 39.2 32 75% 29.86 0.0
07 22:55 Vrbl 2 10.00 A Few Clouds FEW100 41 32 70% 29.86 0.0
07 22:35 Vrbl 2 10.00 Partly Cloudy SCT090 42.8 32 66% 29.86 0.0
07 22:15 Vrbl 3 10.00 Overcast OVC090 42.8 32 66% 29.86 0.0
07 21:55 Vrbl 3 10.00 Overcast OVC090 42.8 32 66% 29.86 0.0
07 21:35 Calm 10.00 Overcast OVC090 42.8 32 66% 29.85 0.0
07 21:15 Vrbl 1 10.00 Overcast OVC090 42.8 30.2 61% 29.85 0.0
07 20:55 Vrbl 1 10.00 Overcast OVC090 42.8 30.2 61% 29.85 0.0
07 20:35 W 2 10.00 Overcast OVC090 42.8 30.2 61% 29.84 0.0
07 20:15 SW 5 10.00 Overcast OVC090 42.8 28.4 57% 41 29.84 0.0
07 19:55 SW 5 10.00 Overcast OVC090 44.6 26.6 48.2 44.1 49% 43 29.85 0.0
07 19:35 SW 3 10.00 Overcast FEW080 OVC090 44.6 26.6 49% 29.85 0.0
07 19:15 SW 5 10.00 Overcast OVC090 44.6 26.6 49% 43 29.85 0.0
07 18:55 S 8 10.00 Overcast OVC090 44.6 24.8 46% 41 29.85 0.0
07 18:35 S 7 10.00 Overcast OVC090 44.6 26.6 49% 41 29.86 0.0
07 18:15 SW 7 10.00 Mostly Cloudy BKN090 44.6 26.6 49% 41 29.86 0.0
07 17:55 SW 8 10.00 Mostly Cloudy FEW060 SCT070 BKN090 46.4 24.8 43% 43 29.86 0.0
07 17:35 SW 9 10.00 Mostly Cloudy FEW060 BKN070 BKN090 44.6 24.8 46% 40 29.87 0.0
07 17:15 S 9 10.00 Mostly Cloudy BKN090 44.6 24.8 46% 40 29.87 0.0
07 16:55 SW 8 10.00 Overcast OVC090 46.4 24.8 43% 43 29.87 0.0
07 16:35 SW 7 10.00 Overcast OVC090 44.6 23 43% 41 29.87 0.0
07 16:15 S 10 10.00 Overcast OVC090 46.4 24.8 43% 42 29.87 0.0
07 15:55 SW 8 10.00 Overcast OVC090 46.4 26.6 46% 43 29.88 0.0
07 15:35 W 8 10.00 Overcast OVC080 48.2 28.4 46% 45 29.88 0.0
07 15:15 SW 8 10.00 Mostly Cloudy BKN080 48.2 26.6 43% 45 29.88 0.0
07 14:55 SW 8 10.00 Partly Cloudy SCT080 46.4 28.4 50% 43 29.88 0.0
07 14:35 W 12 10.00 Fair CLR 46.4 30.2 53% 42 29.88 0.0
07 14:15 SW 8 10.00 Fair CLR 46.4 30.2 53% 43 29.88 0.0
07 13:55 SW 8 10.00 A Few Clouds FEW075 46.4 28.4 48 33.8 50% 43 29.89 0.0
07 13:35 SW 7 10.00 A Few Clouds FEW075 46.4 28.4 50% 43 29.89 0.0
07 13:15 Vrbl 7 10.00 Mostly Cloudy BKN075 46.4 30.2 53% 43 29.9 0.0
07 12:55 SW 7 10.00 Overcast OVC075 44.6 30.2 57% 41 29.91 0.0
07 12:35 Vrbl 6 10.00 Overcast OVC075 42.8 30.2 61% 40 29.92 0.0
07 12:15 SW 9 10.00 Overcast OVC075 42.8 32 66% 38 29.92 0.0
07 11:55 Vrbl 6 10.00 Overcast OVC075 42.8 32 66% 40 29.92 0.0
07 11:35 Vrbl 6 10.00 Overcast OVC065 42.8 32 66% 40 29.92 0.0
07 11:15 SW 8 10.00 Overcast OVC065 42.8 30.2 61% 39 29.92 0.0
07 10:55 W 7 10.00 Overcast OVC065 42.8 30.2 61% 39 29.92 0.0
07 10:35 W 8 10.00 Overcast OVC065 42.8 30.2 61% 39 29.92 0.0
07 10:15 W 7 10.00 Overcast OVC065 44.6 30.2 57% 41 29.92 0.0
07 09:55 Vrbl 6 10.00 Overcast OVC065 42.8 30.2 61% 40 29.92 0.0
07 09:35 SW 9 G 16 10.00 Overcast OVC065 42.8 30.2 61% 38 29.92 0.0
07 09:15 SW 9 10.00 Partly Cloudy SCT065 42.8 30.2 61% 38 29.92 0.0
07 08:55 SW 8 10.00 Fair CLR 42.8 30.2 61% 39 29.92 0.0
07 08:35 SW 6 10.00 Fair CLR 41 30.2 66% 38 29.92 0.0
07 08:15 SW 5 10.00 Fair CLR 39.2 33.8 81% 36 29.92 0.0
07 07:55 W 6 10.00 Fair CLR 37.4 33.8 36.1 28.2 87% 33 29.92 0.0
07 07:35 Calm 10.00 Fair CLR 32 28.4 87% 29.91 0.0
07 07:15 Calm 10.00 Fair CLR 28.4 26.6 93% 29.9 0.0
07 06:55 Calm 10.00 Fair CLR 28.4 26.6 93% 29.9 0.0
07 06:35 NW 2 10.00 Fair CLR 28.4 28.4 100% 29.9 0.0
07 06:15 SE 1 10.00 Fair CLR 30.2 26.6 86% 29.89 0.0
07 05:55 NW 1 10.00 Fair CLR 30.2 26.6 86% 29.89 0.0
07 05:35 NE 1 10.00 Fair CLR 30.2 28.4 93% 29.9 0.0
07 05:15 E 1 10.00 Fair CLR 30.2 28.4 93% 29.9 0.0
07 04:55 NW 1 10.00 Fair CLR 30.2 28.4 93% 29.9 0.0
07 04:35 N 1 10.00 Fair CLR 32 28.4 87% 29.9 0.0
07 04:15 Calm 10.00 Partly Cloudy SCT075 32 28.4 87% 29.9 0.0
07 03:55 Calm 10.00 Mostly Cloudy BKN085 33.8 30.2 87% 29.9 0.0
07 03:35 Vrbl 2 10.00 Overcast OVC085 33.8 30.2 87% 29.91 0.0
07 03:15 E 1 10.00 Overcast OVC085 35.6 30.2 81% 29.91 0.0
07 02:55 N 1 10.00 Overcast OVC085 35.6 30.2 81% 29.92 0.0
07 02:35 E 1 10.00 Overcast OVC085 35.6 30.2 81% 29.92 0.0
07 02:15 Calm 10.00 Overcast OVC085 35.6 30.2 81% 29.92 0.0
07 01:55 Calm 10.00 Overcast OVC085 35.6 30.2 45.3 35.1 81% 29.93 0.0
07 01:35 N 1 10.00 Overcast OVC085 35.6 30.2 81% 29.93 0.0
07 01:15 SE 1 10.00 Overcast OVC095 37.4 30.2 75% 29.93 0.0
07 00:55 S 1 10.00 Overcast OVC095 39.2 32 75% 29.93 0.0
07 00:35 NW 1 10.00 Overcast OVC095 39.2 30.2 70% 29.93 0.0
07 00:15 Vrbl 1 10.00 Overcast FEW042 FEW065 OVC095 39.2 30.2 70% 29.93 0.0
06 23:55 E 3 10.00 Overcast SCT050 BKN055 OVC095 41 30.2 66% 29.93 0.0
06 23:35 E 2 10.00 Light Rain OVC050 41 28.4 61% 29.93 0.0
06 23:15 NE 3 10.00 Overcast BKN050 BKN065 OVC090 41 30.2 66% 29.93 0.0
06 22:55 NE 3 10.00 Light Rain SCT050 SCT065 BKN090 41 28.4 61% 29.93 0.0
06 22:35 Vrbl 2 10.00 Overcast SCT050 OVC065 41 28.4 61% 29.94 0.0
06 22:15 NE 3 10.00 Overcast SCT050 OVC070 41 28.4 61% 29.93 0.0
06 21:55 E 1 10.00 Overcast OVC050 41 28.4 61% 29.93 0.0
06 21:35 N 2 10.00 Mostly Cloudy SCT050 BKN060 41 28.4 61% 29.92 0.0
06 21:15 Vrbl 3 10.00 Mostly Cloudy BKN060 BKN085 42.8 28.4 57% 29.92 0.0
06 20:55 N 2 10.00 Mostly Cloudy SCT060 BKN085 41 28.4 61% 29.91 0.0
06 20:35 N 2 10.00 Fair CLR 41 28.4 61% 29.91 0.0
06 20:15 W 5 10.00 A Few Clouds FEW055 44.6 26.6 49% 43 29.9 0.0
06 19:55 W 5 10.00 A Few Clouds FEW055 44.6 26.6 49.3 45 49% 43 29.9 0.0
06 19:35 SW 6 10.00 Fair CLR 44.6 26.6 49% 42 29.9 0.0
06 19:15 W 6 10.00 Partly Cloudy SCT080 44.6 24.8 46% 42 29.9 0.0
06 18:55 W 5 10.00 Overcast OVC080 46.4 26.6 46% 45 29.9 0.0
06 18:35 SW 6 10.00 Overcast OVC080 46.4 26.6 46% 44 29.91 0.0
06 18:15 W 7 10.00 Overcast OVC080 44.6 24.8 46% 41 29.91 0.0
06 17:55 Vrbl 6 10.00 Overcast OVC080 46.4 24.8 43% 44 29.91 0.0
06 17:35 Vrbl 6 10.00 Overcast OVC080 46.4 24.8 43% 44 29.91 0.0
06 17:15 SW 6 10.00 Overcast OVC070 44.6 23 43% 42 29.91 0.0
06 16:55 SW 7 10.00 Overcast OVC070 46.4 24.8 43% 43 29.91 0.0
06 16:35 W 8 10.00 Overcast OVC070 46.4 24.8 43% 43 29.91 0.0
06 16:15 W 8 10.00 Overcast OVC070 48.2 24.8 40% 45 29.91 0.0
06 15:55 Vrbl 7 10.00 Overcast OVC070 48.2 23 37% 46 29.91 0.0
06 15:35 W 8 10.00 Overcast OVC070 46.4 23 40% 43 29.91 0.0
06 15:15 Vrbl 6 10.00 Overcast OVC070 48.2 24.8 40% 46 29.91 0.0
06 14:55 NW 8 10.00 Overcast OVC070 46.4 24.8 43% 43 29.92 0.0
06 14:35 W 8 10.00 Overcast OVC070 48.2 24.8 40% 45 29.92 0.0
06 14:15 N 7 10.00 Overcast OVC070 46.4 24.8 43% 43 29.92 0.0
06 13:55 Vrbl 3 10.00 Overcast FEW047 OVC070 46.4 24.8 46.9 36.7 43% 29.92 0.0
06 13:35 W 5 10.00 Overcast BKN047 OVC070 46.4 23 40% 45 29.93 0.0
06 13:15 W 6 10.00 Overcast OVC047 44.6 23 43% 42 29.93 0.0
06 12:55 NE 6 10.00 Overcast OVC047 44.6 23 43% 42 29.94 0.0
06 12:35 Vrbl 5 10.00 Overcast OVC047 42.8 21.2 42% 41 29.94 0.0
06 12:15 Vrbl 6 10.00 Overcast OVC047 42.8 21.2 42% 40 29.94 0.0
06 11:55 NW 7 10.00 Overcast OVC047 42.8 21.2 42% 39 29.94 0.0
06 11:35 N 7 10.00 Overcast OVC049 42.8 21.2 42% 39 29.93 0.0
06 11:15 N 6 10.00 Overcast OVC049 42.8 21.2 42% 40 29.93 0.0
06 10:55 NE 2 10.00 Overcast OVC049 42.8 19.4 39% 29.92 0.0
06 10:35 NE 6 10.00 Overcast OVC049 42.8 21.2 42% 40 29.92 0.0
06 10:15 W 6 10.00 Overcast OVC049 42.8 19.4 39% 40 29.92 0.0
06 09:55 Vrbl 3 10.00 Overcast OVC049 42.8 21.2 42% 29.91 0.0
Date Time (edt) Wind (mph) Vis. (mi.) Weather Sky Cond. Air Dwpt Max. Min. Relative Humidity Wind Chill (°F) Heat Index (°F) altimeter (in) sea level (mb) 1 hr 3 hr 6 hr
6 hour
Temperature (ºF) Pressure Precipitation (in)